sensor_id;sensor_type;location;lat;lon;timestamp;P1;durP1;ratioP1;P2;durP2;ratioP2
22549;SDS011;11441;57.164;-2.120;2022-12-29T00:00:18;3.23;;;1.77;;
22549;SDS011;11441;57.164;-2.120;2022-12-29T00:02:45;2.73;;;1.30;;
22549;SDS011;11441;57.164;-2.120;2022-12-29T00:05:12;5.30;;;1.70;;
22549;SDS011;11441;57.164;-2.120;2022-12-29T00:07:39;2.00;;;1.33;;
22549;SDS011;11441;57.164;-2.120;2022-12-29T00:10:06;2.47;;;1.23;;
22549;SDS011;11441;57.164;-2.120;2022-12-29T00:12:34;1.85;;;1.13;;
22549;SDS011;11441;57.164;-2.120;2022-12-29T00:15:19;1.73;;;1.00;;
22549;SDS011;11441;57.164;-2.120;2022-12-29T00:18:04;1.70;;;0.60;;
22549;SDS011;11441;57.164;-2.120;2022-12-29T00:20:35;0.60;;;0.60;;
22549;SDS011;11441;57.164;-2.120;2022-12-29T00:23:21;2.20;;;0.60;;
22549;SDS011;11441;57.164;-2.120;2022-12-29T00:26:12;2.92;;;0.47;;
22549;SDS011;11441;57.164;-2.120;2022-12-29T00:29:00;0.30;;;0.30;;
22549;SDS011;11441;57.164;-2.120;2022-12-29T00:31:47;0.40;;;0.40;;
22549;SDS011;11441;57.164;-2.120;2022-12-29T00:34:32;0.20;;;0.20;;
22549;SDS011;11441;57.164;-2.120;2022-12-29T00:37:18;0.65;;;0.40;;
22549;SDS011;11441;57.164;-2.120;2022-12-29T00:40:05;1.60;;;0.30;;
22549;SDS011;11441;57.164;-2.120;2022-12-29T00:45:56;1.60;;;0.30;;
22549;SDS011;11441;57.164;-2.120;2022-12-29T00:48:22;1.47;;;0.30;;
22549;SDS011;11441;57.164;-2.120;2022-12-29T00:51:08;0.20;;;0.20;;
22549;SDS011;11441;57.164;-2.120;2022-12-29T00:53:35;1.17;;;0.20;;
22549;SDS011;11441;57.164;-2.120;2022-12-29T00:56:01;0.20;;;0.20;;
22549;SDS011;11441;57.164;-2.120;2022-12-29T00:58:29;0.40;;;0.20;;
22549;SDS011;11441;57.164;-2.120;2022-12-29T01:01:03;0.30;;;0.30;;
22549;SDS011;11441;57.164;-2.120;2022-12-29T01:03:33;0.20;;;0.20;;
22549;SDS011;11441;57.164;-2.120;2022-12-29T01:06:05;0.87;;;0.30;;
22549;SDS011;11441;57.164;-2.120;2022-12-29T01:08:36;0.20;;;0.20;;
22549;SDS011;11441;57.164;-2.120;2022-12-29T01:11:04;0.43;;;0.30;;
22549;SDS011;11441;57.164;-2.120;2022-12-29T01:13:33;0.50;;;0.33;;
22549;SDS011;11441;57.164;-2.120;2022-12-29T01:16:00;0.47;;;0.20;;
22549;SDS011;11441;57.164;-2.120;2022-12-29T01:18:28;0.40;;;0.30;;
22549;SDS011;11441;57.164;-2.120;2022-12-29T01:20:58;0.27;;;0.20;;
22549;SDS011;11441;57.164;-2.120;2022-12-29T01:23:26;0.45;;;0.20;;
22549;SDS011;11441;57.164;-2.120;2022-12-29T01:25:54;0.30;;;0.30;;
22549;SDS011;11441;57.164;-2.120;2022-12-29T01:28:23;0.83;;;0.33;;
22549;SDS011;11441;57.164;-2.120;2022-12-29T01:30:51;0.23;;;0.23;;
22549;SDS011;11441;57.164;-2.120;2022-12-29T01:33:18;0.27;;;0.23;;
22549;SDS011;11441;57.164;-2.120;2022-12-29T01:35:45;2.47;;;0.40;;
22549;SDS011;11441;57.164;-2.120;2022-12-29T01:38:12;1.07;;;0.30;;
22549;SDS011;11441;57.164;-2.120;2022-12-29T01:40:46;0.20;;;0.20;;
22549;SDS011;11441;57.164;-2.120;2022-12-29T01:43:14;0.50;;;0.13;;
22549;SDS011;11441;57.164;-2.120;2022-12-29T01:45:44;0.33;;;0.30;;
22549;SDS011;11441;57.164;-2.120;2022-12-29T01:48:16;0.20;;;0.20;;
22549;SDS011;11441;57.164;-2.120;2022-12-29T01:50:51;1.03;;;0.33;;
22549;SDS011;11441;57.164;-2.120;2022-12-29T01:53:21;0.20;;;0.20;;
22549;SDS011;11441;57.164;-2.120;2022-12-29T01:56:00;0.40;;;0.20;;
22549;SDS011;11441;57.164;-2.120;2022-12-29T01:58:50;0.20;;;0.20;;
22549;SDS011;11441;57.164;-2.120;2022-12-29T02:01:26;0.40;;;0.30;;
22549;SDS011;11441;57.164;-2.120;2022-12-29T02:03:53;0.90;;;0.50;;
22549;SDS011;11441;57.164;-2.120;2022-12-29T02:06:28;0.53;;;0.20;;
22549;SDS011;11441;57.164;-2.120;2022-12-29T02:08:59;1.20;;;0.30;;
22549;SDS011;11441;57.164;-2.120;2022-12-29T02:11:27;2.93;;;0.33;;
22549;SDS011;11441;57.164;-2.120;2022-12-29T02:13:56;0.80;;;0.20;;
22549;SDS011;11441;57.164;-2.120;2022-12-29T02:22:18;0.43;;;0.20;;
22549;SDS011;11441;57.164;-2.120;2022-12-29T02:34:01;0.60;;;0.17;;
22549;SDS011;11441;57.164;-2.120;2022-12-29T02:37:11;0.60;;;0.10;;
22549;SDS011;11441;57.164;-2.120;2022-12-29T02:39:53;0.20;;;0.20;;
22549;SDS011;11441;57.164;-2.120;2022-12-29T02:47:41;0.30;;;0.30;;
22549;SDS011;11441;57.164;-2.120;2022-12-29T02:50:15;0.10;;;0.10;;
22549;SDS011;11441;57.164;-2.120;2022-12-29T02:53:06;0.13;;;0.13;;
22549;SDS011;11441;57.164;-2.120;2022-12-29T02:55:34;0.47;;;0.20;;
22549;SDS011;11441;57.164;-2.120;2022-12-29T03:11:58;0.10;;;0.10;;
22549;SDS011;11441;57.164;-2.120;2022-12-29T03:17:49;0.10;;;0.10;;
22549;SDS011;11441;57.164;-2.120;2022-12-29T03:20:24;0.00;;;0.00;;
22549;SDS011;11441;57.164;-2.120;2022-12-29T03:22:58;0.10;;;0.10;;
22549;SDS011;11441;57.164;-2.120;2022-12-29T03:25:32;0.00;;;0.00;;
22549;SDS011;11441;57.164;-2.120;2022-12-29T03:28:06;0.00;;;0.00;;
22549;SDS011;11441;57.164;-2.120;2022-12-29T03:30:41;0.00;;;0.00;;
22549;SDS011;11441;57.164;-2.120;2022-12-29T03:33:13;0.00;;;0.00;;
22549;SDS011;11441;57.164;-2.120;2022-12-29T03:35:44;0.00;;;0.00;;
22549;SDS011;11441;57.164;-2.120;2022-12-29T03:38:15;0.10;;;0.10;;
22549;SDS011;11441;57.164;-2.120;2022-12-29T03:40:50;0.10;;;0.10;;
22549;SDS011;11441;57.164;-2.120;2022-12-29T03:46:10;0.00;;;0.00;;
22549;SDS011;11441;57.164;-2.120;2022-12-29T03:48:40;0.00;;;0.00;;
22549;SDS011;11441;57.164;-2.120;2022-12-29T03:51:07;0.00;;;0.00;;
22549;SDS011;11441;57.164;-2.120;2022-12-29T03:53:35;0.00;;;0.00;;
22549;SDS011;11441;57.164;-2.120;2022-12-29T03:56:02;0.60;;;0.20;;
22549;SDS011;11441;57.164;-2.120;2022-12-29T03:58:29;0.00;;;0.00;;
22549;SDS011;11441;57.164;-2.120;2022-12-29T04:01:02;0.10;;;0.10;;
22549;SDS011;11441;57.164;-2.120;2022-12-29T04:03:33;0.10;;;0.10;;
22549;SDS011;11441;57.164;-2.120;2022-12-29T04:06:00;0.10;;;0.10;;
22549;SDS011;11441;57.164;-2.120;2022-12-29T04:08:33;0.00;;;0.00;;
22549;SDS011;11441;57.164;-2.120;2022-12-29T04:11:00;0.00;;;0.00;;
22549;SDS011;11441;57.164;-2.120;2022-12-29T04:13:27;0.10;;;0.10;;
22549;SDS011;11441;57.164;-2.120;2022-12-29T04:15:54;0.10;;;0.10;;
22549;SDS011;11441;57.164;-2.120;2022-12-29T04:18:21;0.00;;;0.00;;
22549;SDS011;11441;57.164;-2.120;2022-12-29T04:20:48;0.00;;;0.00;;
22549;SDS011;11441;57.164;-2.120;2022-12-29T04:23:28;0.10;;;0.10;;
22549;SDS011;11441;57.164;-2.120;2022-12-29T04:25:57;0.00;;;0.00;;
22549;SDS011;11441;57.164;-2.120;2022-12-29T04:28:25;0.00;;;0.00;;
22549;SDS011;11441;57.164;-2.120;2022-12-29T04:31:13;0.00;;;0.00;;
22549;SDS011;11441;57.164;-2.120;2022-12-29T04:33:42;0.00;;;0.00;;
22549;SDS011;11441;57.164;-2.120;2022-12-29T04:36:09;0.00;;;0.00;;
22549;SDS011;11441;57.164;-2.120;2022-12-29T04:38:37;0.00;;;0.00;;
22549;SDS011;11441;57.164;-2.120;2022-12-29T04:41:04;0.00;;;0.00;;
22549;SDS011;11441;57.164;-2.120;2022-12-29T04:43:33;0.00;;;0.00;;
22549;SDS011;11441;57.164;-2.120;2022-12-29T04:46:02;0.00;;;0.00;;
22549;SDS011;11441;57.164;-2.120;2022-12-29T04:49:05;0.00;;;0.00;;
22549;SDS011;11441;57.164;-2.120;2022-12-29T04:51:47;0.03;;;0.03;;
22549;SDS011;11441;57.164;-2.120;2022-12-29T04:54:15;0.00;;;0.00;;
22549;SDS011;11441;57.164;-2.120;2022-12-29T04:56:46;0.10;;;0.10;;
22549;SDS011;11441;57.164;-2.120;2022-12-29T04:59:15;0.00;;;0.00;;
22549;SDS011;11441;57.164;-2.120;2022-12-29T05:01:45;0.00;;;0.00;;
22549;SDS011;11441;57.164;-2.120;2022-12-29T05:04:33;0.00;;;0.00;;
22549;SDS011;11441;57.164;-2.120;2022-12-29T05:07:01;0.10;;;0.10;;
22549;SDS011;11441;57.164;-2.120;2022-12-29T05:09:27;0.00;;;0.00;;
22549;SDS011;11441;57.164;-2.120;2022-12-29T05:11:56;0.00;;;0.00;;
22549;SDS011;11441;57.164;-2.120;2022-12-29T05:14:23;0.00;;;0.00;;
22549;SDS011;11441;57.164;-2.120;2022-12-29T05:19:35;0.00;;;0.00;;
22549;SDS011;11441;57.164;-2.120;2022-12-29T05:22:02;0.00;;;0.00;;
22549;SDS011;11441;57.164;-2.120;2022-12-29T05:24:29;0.00;;;0.00;;
22549;SDS011;11441;57.164;-2.120;2022-12-29T05:26:56;0.00;;;0.00;;
22549;SDS011;11441;57.164;-2.120;2022-12-29T05:29:49;0.00;;;0.00;;
22549;SDS011;11441;57.164;-2.120;2022-12-29T05:32:16;0.07;;;0.07;;
22549;SDS011;11441;57.164;-2.120;2022-12-29T05:35:00;0.10;;;0.10;;
22549;SDS011;11441;57.164;-2.120;2022-12-29T05:37:30;0.00;;;0.00;;
22549;SDS011;11441;57.164;-2.120;2022-12-29T05:39:58;0.00;;;0.00;;
22549;SDS011;11441;57.164;-2.120;2022-12-29T05:42:26;0.00;;;0.00;;
22549;SDS011;11441;57.164;-2.120;2022-12-29T05:45:16;0.37;;;0.37;;
22549;SDS011;11441;57.164;-2.120;2022-12-29T05:48:20;0.00;;;0.00;;
22549;SDS011;11441;57.164;-2.120;2022-12-29T05:51:22;0.10;;;0.10;;
22549;SDS011;11441;57.164;-2.120;2022-12-29T05:53:52;0.00;;;0.00;;
22549;SDS011;11441;57.164;-2.120;2022-12-29T05:56:19;0.10;;;0.10;;
22549;SDS011;11441;57.164;-2.120;2022-12-29T05:58:52;0.10;;;0.10;;
22549;SDS011;11441;57.164;-2.120;2022-12-29T06:01:20;0.00;;;0.00;;
22549;SDS011;11441;57.164;-2.120;2022-12-29T06:03:47;0.00;;;0.00;;
22549;SDS011;11441;57.164;-2.120;2022-12-29T06:06:17;0.00;;;0.00;;
22549;SDS011;11441;57.164;-2.120;2022-12-29T06:08:45;0.00;;;0.00;;
22549;SDS011;11441;57.164;-2.120;2022-12-29T06:11:12;0.00;;;0.00;;
22549;SDS011;11441;57.164;-2.120;2022-12-29T06:13:46;1.33;;;0.00;;
22549;SDS011;11441;57.164;-2.120;2022-12-29T06:16:12;0.00;;;0.00;;
22549;SDS011;11441;57.164;-2.120;2022-12-29T06:18:40;0.00;;;0.00;;
22549;SDS011;11441;57.164;-2.120;2022-12-29T06:21:08;0.00;;;0.00;;
22549;SDS011;11441;57.164;-2.120;2022-12-29T06:23:35;0.10;;;0.10;;
22549;SDS011;11441;57.164;-2.120;2022-12-29T06:26:03;0.00;;;0.00;;
22549;SDS011;11441;57.164;-2.120;2022-12-29T06:28:48;0.10;;;0.10;;
22549;SDS011;11441;57.164;-2.120;2022-12-29T06:31:15;0.10;;;0.10;;
22549;SDS011;11441;57.164;-2.120;2022-12-29T06:33:42;0.07;;;0.07;;
22549;SDS011;11441;57.164;-2.120;2022-12-29T06:36:15;0.00;;;0.00;;
22549;SDS011;11441;57.164;-2.120;2022-12-29T06:38:42;0.20;;;0.10;;
22549;SDS011;11441;57.164;-2.120;2022-12-29T06:41:09;0.37;;;0.00;;
22549;SDS011;11441;57.164;-2.120;2022-12-29T06:43:56;0.10;;;0.00;;
22549;SDS011;11441;57.164;-2.120;2022-12-29T06:46:35;0.00;;;0.00;;
22549;SDS011;11441;57.164;-2.120;2022-12-29T06:49:02;0.10;;;0.10;;
22549;SDS011;11441;57.164;-2.120;2022-12-29T06:51:29;0.87;;;0.10;;
22549;SDS011;11441;57.164;-2.120;2022-12-29T06:53:56;0.03;;;0.03;;
22549;SDS011;11441;57.164;-2.120;2022-12-29T06:56:22;0.10;;;0.10;;
22549;SDS011;11441;57.164;-2.120;2022-12-29T06:58:49;0.10;;;0.10;;
22549;SDS011;11441;57.164;-2.120;2022-12-29T07:01:16;0.10;;;0.10;;
22549;SDS011;11441;57.164;-2.120;2022-12-29T07:03:43;0.10;;;0.10;;
22549;SDS011;11441;57.164;-2.120;2022-12-29T07:06:10;0.10;;;0.10;;
22549;SDS011;11441;57.164;-2.120;2022-12-29T07:08:36;0.10;;;0.10;;
22549;SDS011;11441;57.164;-2.120;2022-12-29T07:11:05;0.10;;;0.10;;
22549;SDS011;11441;57.164;-2.120;2022-12-29T07:13:31;0.10;;;0.10;;
22549;SDS011;11441;57.164;-2.120;2022-12-29T07:15:58;0.10;;;0.10;;
22549;SDS011;11441;57.164;-2.120;2022-12-29T07:18:25;0.20;;;0.20;;
22549;SDS011;11441;57.164;-2.120;2022-12-29T07:20:52;1.43;;;0.10;;
22549;SDS011;11441;57.164;-2.120;2022-12-29T07:23:19;0.10;;;0.10;;
22549;SDS011;11441;57.164;-2.120;2022-12-29T07:25:45;0.10;;;0.10;;
22549;SDS011;11441;57.164;-2.120;2022-12-29T07:28:13;0.53;;;0.10;;
22549;SDS011;11441;57.164;-2.120;2022-12-29T07:30:40;0.10;;;0.10;;
22549;SDS011;11441;57.164;-2.120;2022-12-29T07:33:06;0.20;;;0.10;;
22549;SDS011;11441;57.164;-2.120;2022-12-29T07:35:33;0.30;;;0.10;;
22549;SDS011;11441;57.164;-2.120;2022-12-29T07:38:01;0.10;;;0.10;;
22549;SDS011;11441;57.164;-2.120;2022-12-29T07:40:27;0.03;;;0.03;;
22549;SDS011;11441;57.164;-2.120;2022-12-29T07:42:54;0.20;;;0.10;;
22549;SDS011;11441;57.164;-2.120;2022-12-29T07:45:30;0.00;;;0.00;;
22549;SDS011;11441;57.164;-2.120;2022-12-29T07:48:09;0.57;;;0.07;;
22549;SDS011;11441;57.164;-2.120;2022-12-29T07:50:36;0.00;;;0.00;;
22549;SDS011;11441;57.164;-2.120;2022-12-29T07:53:03;0.17;;;0.10;;
22549;SDS011;11441;57.164;-2.120;2022-12-29T07:55:30;0.00;;;0.00;;
22549;SDS011;11441;57.164;-2.120;2022-12-29T07:57:57;0.10;;;0.10;;
22549;SDS011;11441;57.164;-2.120;2022-12-29T08:00:24;0.10;;;0.10;;
22549;SDS011;11441;57.164;-2.120;2022-12-29T08:02:51;0.10;;;0.10;;
22549;SDS011;11441;57.164;-2.120;2022-12-29T08:05:18;0.40;;;0.10;;
22549;SDS011;11441;57.164;-2.120;2022-12-29T08:07:46;0.10;;;0.10;;
22549;SDS011;11441;57.164;-2.120;2022-12-29T08:10:13;0.10;;;0.10;;
22549;SDS011;11441;57.164;-2.120;2022-12-29T08:12:40;0.17;;;0.17;;
22549;SDS011;11441;57.164;-2.120;2022-12-29T08:15:09;0.20;;;0.20;;
22549;SDS011;11441;57.164;-2.120;2022-12-29T08:17:37;0.43;;;0.10;;
22549;SDS011;11441;57.164;-2.120;2022-12-29T08:20:04;0.10;;;0.10;;
22549;SDS011;11441;57.164;-2.120;2022-12-29T08:22:31;0.10;;;0.10;;
22549;SDS011;11441;57.164;-2.120;2022-12-29T08:24:58;0.43;;;0.00;;
22549;SDS011;11441;57.164;-2.120;2022-12-29T08:27:25;0.20;;;0.20;;
22549;SDS011;11441;57.164;-2.120;2022-12-29T08:29:52;0.10;;;0.10;;
22549;SDS011;11441;57.164;-2.120;2022-12-29T08:32:36;0.77;;;0.10;;
22549;SDS011;11441;57.164;-2.120;2022-12-29T08:35:03;0.53;;;0.10;;
22549;SDS011;11441;57.164;-2.120;2022-12-29T08:37:32;0.23;;;0.10;;
22549;SDS011;11441;57.164;-2.120;2022-12-29T08:39:59;0.30;;;0.10;;
22549;SDS011;11441;57.164;-2.120;2022-12-29T08:42:30;0.87;;;0.20;;
22549;SDS011;11441;57.164;-2.120;2022-12-29T08:44:58;0.07;;;0.07;;
22549;SDS011;11441;57.164;-2.120;2022-12-29T08:47:25;0.20;;;0.20;;
22549;SDS011;11441;57.164;-2.120;2022-12-29T08:49:52;0.10;;;0.10;;
22549;SDS011;11441;57.164;-2.120;2022-12-29T08:52:19;0.10;;;0.10;;
22549;SDS011;11441;57.164;-2.120;2022-12-29T08:54:46;3.00;;;0.20;;
22549;SDS011;11441;57.164;-2.120;2022-12-29T08:57:13;0.20;;;0.20;;
22549;SDS011;11441;57.164;-2.120;2022-12-29T09:00:00;2.97;;;0.10;;
22549;SDS011;11441;57.164;-2.120;2022-12-29T09:05:14;0.57;;;0.20;;
22549;SDS011;11441;57.164;-2.120;2022-12-29T09:07:41;0.30;;;0.10;;
22549;SDS011;11441;57.164;-2.120;2022-12-29T09:10:08;0.50;;;0.10;;
22549;SDS011;11441;57.164;-2.120;2022-12-29T09:12:35;0.20;;;0.10;;
22549;SDS011;11441;57.164;-2.120;2022-12-29T09:15:03;0.60;;;0.10;;
22549;SDS011;11441;57.164;-2.120;2022-12-29T09:17:30;0.13;;;0.10;;
22549;SDS011;11441;57.164;-2.120;2022-12-29T09:20:13;0.37;;;0.27;;
22549;SDS011;11441;57.164;-2.120;2022-12-29T09:22:43;1.20;;;0.30;;
22549;SDS011;11441;57.164;-2.120;2022-12-29T09:25:10;0.43;;;0.30;;
22549;SDS011;11441;57.164;-2.120;2022-12-29T09:27:38;0.80;;;0.30;;
22549;SDS011;11441;57.164;-2.120;2022-12-29T09:30:06;0.37;;;0.27;;
22549;SDS011;11441;57.164;-2.120;2022-12-29T09:32:34;0.83;;;0.10;;
22549;SDS011;11441;57.164;-2.120;2022-12-29T09:35:09;0.50;;;0.20;;
22549;SDS011;11441;57.164;-2.120;2022-12-29T09:37:36;0.10;;;0.10;;
22549;SDS011;11441;57.164;-2.120;2022-12-29T09:40:03;2.33;;;0.10;;
22549;SDS011;11441;57.164;-2.120;2022-12-29T09:45:05;0.30;;;0.20;;
22549;SDS011;11441;57.164;-2.120;2022-12-29T09:47:39;0.10;;;0.10;;
22549;SDS011;11441;57.164;-2.120;2022-12-29T09:53:03;0.70;;;0.40;;
22549;SDS011;11441;57.164;-2.120;2022-12-29T09:55:38;0.20;;;0.20;;
22549;SDS011;11441;57.164;-2.120;2022-12-29T10:01:06;0.10;;;0.10;;
22549;SDS011;11441;57.164;-2.120;2022-12-29T10:03:45;1.80;;;0.57;;
22549;SDS011;11441;57.164;-2.120;2022-12-29T10:06:15;0.30;;;0.20;;
22549;SDS011;11441;57.164;-2.120;2022-12-29T10:14:52;0.40;;;0.20;;
22549;SDS011;11441;57.164;-2.120;2022-12-29T10:25:24;0.13;;;0.10;;
22549;SDS011;11441;57.164;-2.120;2022-12-29T10:27:59;0.10;;;0.10;;
22549;SDS011;11441;57.164;-2.120;2022-12-29T10:30:28;0.63;;;0.10;;
22549;SDS011;11441;57.164;-2.120;2022-12-29T10:32:59;0.10;;;0.10;;
22549;SDS011;11441;57.164;-2.120;2022-12-29T10:35:32;1.13;;;0.20;;
22549;SDS011;11441;57.164;-2.120;2022-12-29T10:38:17;1.40;;;0.20;;
22549;SDS011;11441;57.164;-2.120;2022-12-29T10:40:47;0.93;;;0.47;;
22549;SDS011;11441;57.164;-2.120;2022-12-29T10:45:57;0.10;;;0.10;;
22549;SDS011;11441;57.164;-2.120;2022-12-29T10:48:30;0.40;;;0.10;;
22549;SDS011;11441;57.164;-2.120;2022-12-29T10:50:59;1.33;;;0.10;;
22549;SDS011;11441;57.164;-2.120;2022-12-29T10:53:40;0.90;;;0.33;;
22549;SDS011;11441;57.164;-2.120;2022-12-29T10:56:35;1.30;;;0.20;;
22549;SDS011;11441;57.164;-2.120;2022-12-29T10:59:06;0.50;;;0.10;;
22549;SDS011;11441;57.164;-2.120;2022-12-29T11:01:49;0.10;;;0.10;;
22549;SDS011;11441;57.164;-2.120;2022-12-29T11:06:59;2.10;;;0.30;;
22549;SDS011;11441;57.164;-2.120;2022-12-29T11:09:28;0.20;;;0.20;;
22549;SDS011;11441;57.164;-2.120;2022-12-29T11:12:46;0.27;;;0.23;;
22549;SDS011;11441;57.164;-2.120;2022-12-29T11:20:31;0.10;;;0.10;;
22549;SDS011;11441;57.164;-2.120;2022-12-29T11:23:05;0.13;;;0.13;;
22549;SDS011;11441;57.164;-2.120;2022-12-29T11:28:33;0.40;;;0.30;;
22549;SDS011;11441;57.164;-2.120;2022-12-29T11:31:01;2.40;;;0.40;;
22549;SDS011;11441;57.164;-2.120;2022-12-29T11:33:38;0.20;;;0.20;;
22549;SDS011;11441;57.164;-2.120;2022-12-29T11:36:06;0.30;;;0.10;;
22549;SDS011;11441;57.164;-2.120;2022-12-29T11:38:56;0.10;;;0.10;;
22549;SDS011;11441;57.164;-2.120;2022-12-29T11:41:24;0.67;;;0.30;;
22549;SDS011;11441;57.164;-2.120;2022-12-29T11:43:52;0.63;;;0.17;;
22549;SDS011;11441;57.164;-2.120;2022-12-29T11:46:40;1.50;;;0.10;;
22549;SDS011;11441;57.164;-2.120;2022-12-29T11:49:18;1.20;;;0.37;;
22549;SDS011;11441;57.164;-2.120;2022-12-29T11:51:49;0.20;;;0.20;;
22549;SDS011;11441;57.164;-2.120;2022-12-29T11:54:25;0.13;;;0.13;;
22549;SDS011;11441;57.164;-2.120;2022-12-29T11:57:11;0.10;;;0.10;;
22549;SDS011;11441;57.164;-2.120;2022-12-29T12:08:09;0.10;;;0.10;;
22549;SDS011;11441;57.164;-2.120;2022-12-29T12:16:46;1.43;;;0.30;;
22549;SDS011;11441;57.164;-2.120;2022-12-29T12:22:28;0.27;;;0.27;;
22549;SDS011;11441;57.164;-2.120;2022-12-29T12:25:20;0.60;;;0.40;;
22549;SDS011;11441;57.164;-2.120;2022-12-29T12:27:57;2.93;;;0.40;;
22549;SDS011;11441;57.164;-2.120;2022-12-29T12:30:35;1.00;;;0.40;;
22549;SDS011;11441;57.164;-2.120;2022-12-29T12:41:24;0.63;;;0.37;;
22549;SDS011;11441;57.164;-2.120;2022-12-29T12:52:23;0.37;;;0.20;;
22549;SDS011;11441;57.164;-2.120;2022-12-29T13:00:18;0.70;;;0.50;;
22549;SDS011;11441;57.164;-2.120;2022-12-29T13:17:17;0.23;;;0.20;;
22549;SDS011;11441;57.164;-2.120;2022-12-29T13:22:30;2.27;;;1.27;;
22549;SDS011;11441;57.164;-2.120;2022-12-29T13:28:56;4.03;;;1.87;;
22549;SDS011;11441;57.164;-2.120;2022-12-29T13:34:50;7.80;;;3.67;;
22549;SDS011;11441;57.164;-2.120;2022-12-29T13:37:40;4.37;;;2.43;;
22549;SDS011;11441;57.164;-2.120;2022-12-29T13:40:23;2.90;;;1.50;;
22549;SDS011;11441;57.164;-2.120;2022-12-29T13:42:52;3.97;;;1.97;;
22549;SDS011;11441;57.164;-2.120;2022-12-29T13:45:22;4.23;;;1.93;;
22549;SDS011;11441;57.164;-2.120;2022-12-29T13:50:57;1.13;;;0.60;;
22549;SDS011;11441;57.164;-2.120;2022-12-29T13:56:17;0.30;;;0.10;;
22549;SDS011;11441;57.164;-2.120;2022-12-29T13:58:54;0.30;;;0.10;;
22549;SDS011;11441;57.164;-2.120;2022-12-29T14:01:28;0.17;;;0.10;;
22549;SDS011;11441;57.164;-2.120;2022-12-29T14:04:02;0.10;;;0.10;;
22549;SDS011;11441;57.164;-2.120;2022-12-29T14:06:35;0.30;;;0.30;;
22549;SDS011;11441;57.164;-2.120;2022-12-29T14:09:27;0.33;;;0.13;;
22549;SDS011;11441;57.164;-2.120;2022-12-29T14:12:01;0.20;;;0.20;;
22549;SDS011;11441;57.164;-2.120;2022-12-29T14:14:46;1.13;;;0.10;;
22549;SDS011;11441;57.164;-2.120;2022-12-29T14:17:18;0.10;;;0.10;;
22549;SDS011;11441;57.164;-2.120;2022-12-29T14:20:05;0.10;;;0.10;;
22549;SDS011;11441;57.164;-2.120;2022-12-29T14:23:15;0.10;;;0.10;;
22549;SDS011;11441;57.164;-2.120;2022-12-29T14:30:59;0.10;;;0.10;;
22549;SDS011;11441;57.164;-2.120;2022-12-29T14:33:28;0.10;;;0.10;;
22549;SDS011;11441;57.164;-2.120;2022-12-29T14:35:57;1.30;;;0.20;;
22549;SDS011;11441;57.164;-2.120;2022-12-29T14:47:19;0.60;;;0.23;;
22549;SDS011;11441;57.164;-2.120;2022-12-29T14:49:52;0.33;;;0.20;;
22549;SDS011;11441;57.164;-2.120;2022-12-29T14:52:22;0.10;;;0.10;;
22549;SDS011;11441;57.164;-2.120;2022-12-29T14:57:42;0.20;;;0.10;;
22549;SDS011;11441;57.164;-2.120;2022-12-29T15:00:22;0.33;;;0.30;;
22549;SDS011;11441;57.164;-2.120;2022-12-29T15:05:56;3.20;;;0.30;;
22549;SDS011;11441;57.164;-2.120;2022-12-29T15:08:37;1.13;;;0.20;;
22549;SDS011;11441;57.164;-2.120;2022-12-29T15:11:14;0.20;;;0.20;;
22549;SDS011;11441;57.164;-2.120;2022-12-29T15:13:44;0.20;;;0.20;;
22549;SDS011;11441;57.164;-2.120;2022-12-29T15:16:21;0.30;;;0.20;;
22549;SDS011;11441;57.164;-2.120;2022-12-29T15:18:55;0.97;;;0.20;;
22549;SDS011;11441;57.164;-2.120;2022-12-29T15:21:27;1.03;;;0.20;;
22549;SDS011;11441;57.164;-2.120;2022-12-29T15:23:56;1.43;;;0.27;;
22549;SDS011;11441;57.164;-2.120;2022-12-29T15:26:24;0.73;;;0.43;;
22549;SDS011;11441;57.164;-2.120;2022-12-29T15:29:03;1.70;;;0.30;;
22549;SDS011;11441;57.164;-2.120;2022-12-29T15:31:30;2.30;;;0.20;;
22549;SDS011;11441;57.164;-2.120;2022-12-29T15:34:10;0.30;;;0.20;;
22549;SDS011;11441;57.164;-2.120;2022-12-29T15:36:39;0.67;;;0.40;;
22549;SDS011;11441;57.164;-2.120;2022-12-29T15:39:20;1.27;;;0.47;;
22549;SDS011;11441;57.164;-2.120;2022-12-29T15:45:26;2.20;;;0.30;;
22549;SDS011;11441;57.164;-2.120;2022-12-29T15:47:58;0.67;;;0.20;;
22549;SDS011;11441;57.164;-2.120;2022-12-29T15:50:26;1.40;;;0.20;;
22549;SDS011;11441;57.164;-2.120;2022-12-29T15:52:55;1.23;;;0.40;;
22549;SDS011;11441;57.164;-2.120;2022-12-29T15:55:32;0.87;;;0.20;;
22549;SDS011;11441;57.164;-2.120;2022-12-29T15:58:04;2.83;;;0.47;;
22549;SDS011;11441;57.164;-2.120;2022-12-29T16:00:33;0.23;;;0.20;;
22549;SDS011;11441;57.164;-2.120;2022-12-29T16:03:20;1.17;;;0.30;;
22549;SDS011;11441;57.164;-2.120;2022-12-29T16:05:53;0.40;;;0.40;;
22549;SDS011;11441;57.164;-2.120;2022-12-29T16:08:32;0.67;;;0.20;;
22549;SDS011;11441;57.164;-2.120;2022-12-29T16:14:37;0.47;;;0.20;;
22549;SDS011;11441;57.164;-2.120;2022-12-29T16:17:12;0.20;;;0.20;;
22549;SDS011;11441;57.164;-2.120;2022-12-29T16:20:19;0.97;;;0.30;;
22549;SDS011;11441;57.164;-2.120;2022-12-29T16:22:58;1.00;;;0.23;;
22549;SDS011;11441;57.164;-2.120;2022-12-29T16:25:29;1.90;;;1.20;;
22549;SDS011;11441;57.164;-2.120;2022-12-29T16:28:02;0.87;;;0.70;;
22549;SDS011;11441;57.164;-2.120;2022-12-29T16:30:42;0.83;;;0.43;;
22549;SDS011;11441;57.164;-2.120;2022-12-29T16:35:59;0.20;;;0.20;;
22549;SDS011;11441;57.164;-2.120;2022-12-29T16:38:30;0.30;;;0.30;;
22549;SDS011;11441;57.164;-2.120;2022-12-29T16:40:59;0.40;;;0.40;;
22549;SDS011;11441;57.164;-2.120;2022-12-29T16:48:26;0.73;;;0.43;;
22549;SDS011;11441;57.164;-2.120;2022-12-29T16:51:15;1.27;;;0.73;;
22549;SDS011;11441;57.164;-2.120;2022-12-29T16:53:48;0.30;;;0.30;;
22549;SDS011;11441;57.164;-2.120;2022-12-29T16:56:21;1.03;;;0.50;;
22549;SDS011;11441;57.164;-2.120;2022-12-29T16:59:37;0.37;;;0.20;;
22549;SDS011;11441;57.164;-2.120;2022-12-29T17:02:13;0.83;;;0.30;;
22549;SDS011;11441;57.164;-2.120;2022-12-29T17:04:42;2.83;;;0.30;;
22549;SDS011;11441;57.164;-2.120;2022-12-29T17:07:15;5.93;;;0.50;;
22549;SDS011;11441;57.164;-2.120;2022-12-29T17:09:44;0.70;;;0.20;;
22549;SDS011;11441;57.164;-2.120;2022-12-29T17:12:13;1.10;;;0.27;;
22549;SDS011;11441;57.164;-2.120;2022-12-29T17:17:38;2.03;;;0.20;;
22549;SDS011;11441;57.164;-2.120;2022-12-29T17:22:45;0.20;;;0.20;;
22549;SDS011;11441;57.164;-2.120;2022-12-29T17:25:13;0.20;;;0.20;;
22549;SDS011;11441;57.164;-2.120;2022-12-29T17:30:14;0.10;;;0.10;;
22549;SDS011;11441;57.164;-2.120;2022-12-29T17:32:45;0.20;;;0.20;;
22549;SDS011;11441;57.164;-2.120;2022-12-29T17:35:23;0.43;;;0.13;;
22549;SDS011;11441;57.164;-2.120;2022-12-29T17:38:19;0.20;;;0.20;;
22549;SDS011;11441;57.164;-2.120;2022-12-29T17:40:51;0.10;;;0.10;;
22549;SDS011;11441;57.164;-2.120;2022-12-29T17:43:19;0.10;;;0.10;;
22549;SDS011;11441;57.164;-2.120;2022-12-29T17:45:47;0.10;;;0.10;;
22549;SDS011;11441;57.164;-2.120;2022-12-29T17:48:18;2.30;;;0.30;;
22549;SDS011;11441;57.164;-2.120;2022-12-29T17:50:46;0.03;;;0.03;;
22549;SDS011;11441;57.164;-2.120;2022-12-29T17:53:18;0.20;;;0.20;;
22549;SDS011;11441;57.164;-2.120;2022-12-29T17:55:46;6.30;;;3.70;;
22549;SDS011;11441;57.164;-2.120;2022-12-29T17:58:17;1.10;;;0.67;;
22549;SDS011;11441;57.164;-2.120;2022-12-29T18:00:48;3.20;;;2.30;;
22549;SDS011;11441;57.164;-2.120;2022-12-29T18:03:17;1.33;;;1.07;;
22549;SDS011;11441;57.164;-2.120;2022-12-29T18:06:07;3.57;;;1.60;;
22549;SDS011;11441;57.164;-2.120;2022-12-29T18:08:38;1.03;;;0.60;;
22549;SDS011;11441;57.164;-2.120;2022-12-29T18:11:23;0.90;;;0.30;;
22549;SDS011;11441;57.164;-2.120;2022-12-29T18:13:52;0.57;;;0.20;;
22549;SDS011;11441;57.164;-2.120;2022-12-29T18:16:20;0.17;;;0.10;;
22549;SDS011;11441;57.164;-2.120;2022-12-29T18:18:48;0.30;;;0.30;;
22549;SDS011;11441;57.164;-2.120;2022-12-29T18:21:16;0.43;;;0.23;;
22549;SDS011;11441;57.164;-2.120;2022-12-29T18:23:45;0.33;;;0.20;;